Time;durP1;ratioP1;P1;durP2;ratioP2;P2;SDS_P1;SDS_P2;PMS_P1;PMS_P2;Temp;Humidity;BMP_temperature;BMP_pressure;BME280_temperature;BME280_humidity;BME280_pressure;Samples;Min_cycle;Max_cycle;Signal;HPM_P1;HPM_P2
2022/12/28 00:00:32;;;;;;;8.77;4.57;;;;;;;;;;5108809;28;20012;-46
2022/12/28 00:02:59;;;;;;;7.88;4.30;;;;;;;;;;5108242;28;20028;-44
2022/12/28 00:05:25;;;;;;;8.45;4.75;;;;;;;;;;5097147;28;20020;-45
2022/12/28 00:07:51;;;;;;;7.10;4.50;;;;;;;;;;5104772;28;20027;-44
2022/12/28 00:10:17;;;;;;;7.55;4.47;;;;;;;;;;5109787;28;20479;-44
2022/12/28 00:12:43;;;;;;;8.30;4.88;;;;;;;;;;5103815;28;20293;-45
2022/12/28 00:15:09;;;;;;;7.20;4.22;;;;;;;;;;5098960;28;20055;-45
2022/12/28 00:17:36;;;;;;;6.15;4.40;;;;;;;;;;5107799;28;20027;-46
2022/12/28 00:20:02;;;;;;;7.10;4.03;;;;;;;;;;5108101;28;20071;-45
2022/12/28 00:22:28;;;;;;;7.40;4.30;;;;;;;;;;5107908;28;20028;-45
2022/12/28 00:24:54;;;;;;;7.38;4.53;;;;;;;;;;5108454;28;20020;-46
2022/12/28 00:27:21;;;;;;;7.97;4.25;;;;;;;;;;5106749;28;20050;-44
2022/12/28 00:29:48;;;;;;;7.18;4.35;;;;;;;;;;5107885;28;20498;-45
2022/12/28 00:32:14;;;;;;;6.72;4.40;;;;;;;;;;5105856;28;20592;-45
2022/12/28 00:34:40;;;;;;;6.70;4.30;;;;;;;;;;5103573;28;20805;-45
2022/12/28 00:37:06;;;;;;;6.57;4.10;;;;;;;;;;5103771;28;20194;-45
2022/12/28 00:39:32;;;;;;;7.35;4.55;;;;;;;;;;5108629;28;20479;-45
2022/12/28 00:41:58;;;;;;;7.25;4.65;;;;;;;;;;5104301;28;20027;-46
2022/12/28 00:44:24;;;;;;;7.32;4.45;;;;;;;;;;5109049;28;20491;-44
2022/12/28 00:46:50;;;;;;;8.48;4.85;;;;;;;;;;5108860;28;20036;-47
2022/12/28 00:49:16;;;;;;;8.45;4.78;;;;;;;;;;5109201;28;20024;-45
2022/12/28 00:51:42;;;;;;;8.00;4.80;;;;;;;;;;5108989;28;20035;-44
2022/12/28 00:54:08;;;;;;;7.15;4.55;;;;;;;;;;5108940;28;20030;-44
2022/12/28 00:56:34;;;;;;;7.22;4.63;;;;;;;;;;5106547;28;20139;-47
2022/12/28 00:59:00;;;;;;;8.18;4.47;;;;;;;;;;5088618;28;20495;-45
2022/12/28 01:01:27;;;;;;;7.90;4.40;;;;;;;;;;5101671;28;20557;-46
2022/12/28 01:03:55;;;;;;;7.32;4.57;;;;;;;;;;5108943;28;20019;-45
2022/12/28 06:12:04;;;;;;;4.43;3.00;;;;;;;;;;5107601;27;20078;-45
2022/12/28 06:14:31;;;;;;;5.32;3.20;;;;;;;;;;5088456;28;20063;-45
2022/12/28 06:16:58;;;;;;;5.32;3.47;;;;;;;;;;5089300;28;20107;-45
2022/12/28 06:19:24;;;;;;;4.18;3.05;;;;;;;;;;5090187;28;20558;-44
2022/12/28 06:21:49;;;;;;;4.90;3.35;;;;;;;;;;5090170;28;20028;-45
2022/12/28 06:24:17;;;;;;;4.32;3.30;;;;;;;;;;5072277;28;20399;-45
2022/12/28 06:26:43;;;;;;;5.85;3.47;;;;;;;;;;5090444;28;20077;-44
2022/12/28 06:29:10;;;;;;;4.57;3.13;;;;;;;;;;5090404;28;20483;-45
2022/12/28 06:31:37;;;;;;;5.55;3.78;;;;;;;;;;5079594;28;20441;-45
2022/12/28 06:34:04;;;;;;;5.35;3.83;;;;;;;;;;5075943;28;20030;-45
2022/12/28 06:36:33;;;;;;;6.15;4.07;;;;;;;;;;5083555;28;20029;-46
2022/12/28 06:39:00;;;;;;;5.93;3.95;;;;;;;;;;5088329;28;20020;-45
2022/12/28 06:41:27;;;;;;;6.57;4.00;;;;;;;;;;5087309;28;20124;-44
2022/12/28 06:43:55;;;;;;;6.63;3.88;;;;;;;;;;5091261;28;20039;-45
2022/12/28 06:46:22;;;;;;;7.03;4.22;;;;;;;;;;5091205;28;20035;-45
2022/12/28 06:48:49;;;;;;;5.55;3.55;;;;;;;;;;5091186;28;20035;-45
2022/12/28 06:51:20;;;;;;;5.35;3.33;;;;;;;;;;5091206;28;20020;-45
2022/12/28 06:53:46;;;;;;;4.93;3.33;;;;;;;;;;5071691;28;20033;-44
2022/12/28 06:56:12;;;;;;;6.20;4.18;;;;;;;;;;5070913;28;20088;-44
2022/12/28 06:58:38;;;;;;;7.07;4.20;;;;;;;;;;5076809;28;20103;-45
2022/12/28 07:01:13;;;;;;;6.30;3.70;;;;;;;;;;5091181;28;20508;-44
2022/12/28 07:03:39;;;;;;;6.13;3.67;;;;;;;;;;5090905;28;20077;-45
2022/12/28 07:06:06;;;;;;;5.85;3.70;;;;;;;;;;5071690;28;20028;-45
2022/12/28 07:08:32;;;;;;;4.18;3.15;;;;;;;;;;5071500;28;20040;-46
2022/12/28 07:11:12;;;;;;;4.57;3.28;;;;;;;;;;5070204;28;20024;-45
2022/12/28 07:13:38;;;;;;;4.22;3.28;;;;;;;;;;5103843;28;20030;-45
2022/12/28 07:16:06;;;;;;;5.70;3.58;;;;;;;;;;5109126;28;20016;-44
2022/12/28 07:18:33;;;;;;;5.38;3.28;;;;;;;;;;5107875;28;20042;-45
2022/12/28 07:21:03;;;;;;;6.00;4.05;;;;;;;;;;5106098;28;20302;-45
2022/12/28 07:23:30;;;;;;;4.88;3.22;;;;;;;;;;5110746;28;20028;-44
2022/12/28 07:26:04;;;;;;;4.68;3.38;;;;;;;;;;5110740;28;20031;-46
2022/12/28 07:28:30;;;;;;;5.63;3.78;;;;;;;;;;5109361;28;20070;-46
2022/12/28 07:30:56;;;;;;;5.75;3.60;;;;;;;;;;5108467;28;20031;-45
2022/12/28 07:33:22;;;;;;;6.53;3.90;;;;;;;;;;5109313;28;20031;-44
2022/12/28 07:35:48;;;;;;;6.13;3.97;;;;;;;;;;5110256;28;20111;-46
2022/12/28 07:38:14;;;;;;;8.90;5.00;;;;;;;;;;5101318;28;20027;-46
2022/12/28 07:40:40;;;;;;;9.18;5.13;;;;;;;;;;5104164;28;20453;-45
2022/12/28 07:43:06;;;;;;;8.35;5.05;;;;;;;;;;5108694;28;20625;-45
2022/12/28 07:45:32;;;;;;;7.75;4.53;;;;;;;;;;5110183;28;20055;-44
2022/12/28 07:47:59;;;;;;;9.02;4.65;;;;;;;;;;5109522;28;20038;-47
2022/12/28 07:50:25;;;;;;;8.48;5.28;;;;;;;;;;5108796;28;20024;-45
2022/12/28 07:52:51;;;;;;;8.20;5.53;;;;;;;;;;5109148;28;20055;-45
2022/12/28 07:55:18;;;;;;;8.35;5.35;;;;;;;;;;5109741;28;20033;-44
2022/12/28 07:57:44;;;;;;;9.07;5.60;;;;;;;;;;5110367;28;20020;-44
2022/12/28 08:00:11;;;;;;;8.15;4.72;;;;;;;;;;5110140;28;20032;-45
2022/12/28 08:02:37;;;;;;;9.82;4.95;;;;;;;;;;5109362;28;20317;-45
2022/12/28 08:05:03;;;;;;;8.18;5.07;;;;;;;;;;5108491;28;20050;-44
2022/12/28 08:07:29;;;;;;;7.20;4.53;;;;;;;;;;5108589;28;20028;-46
2022/12/28 08:09:55;;;;;;;8.88;4.88;;;;;;;;;;5108416;28;20033;-45
2022/12/28 08:12:20;;;;;;;6.97;4.50;;;;;;;;;;5107718;28;20027;-45
2022/12/28 08:14:46;;;;;;;7.45;4.30;;;;;;;;;;5108944;28;20024;-45
2022/12/28 08:17:12;;;;;;;7.65;4.60;;;;;;;;;;5108406;28;20032;-44
2022/12/28 08:19:38;;;;;;;7.35;4.40;;;;;;;;;;5108163;28;20049;-45
2022/12/28 08:22:04;;;;;;;6.28;3.92;;;;;;;;;;5107996;28;20030;-45
2022/12/28 08:24:30;;;;;;;6.07;4.13;;;;;;;;;;5108410;28;20525;-44
2022/12/28 08:26:56;;;;;;;7.35;4.55;;;;;;;;;;5107845;28;20058;-44
2022/12/28 08:29:22;;;;;;;9.05;5.30;;;;;;;;;;5108533;28;20024;-44
2022/12/28 08:31:49;;;;;;;6.93;5.10;;;;;;;;;;5107828;28;20418;-46
2022/12/28 08:34:16;;;;;;;7.80;4.60;;;;;;;;;;5108222;28;20038;-44
2022/12/28 08:36:42;;;;;;;6.93;4.30;;;;;;;;;;5108572;28;20106;-44
2022/12/28 08:39:09;;;;;;;8.85;3.83;;;;;;;;;;5107837;28;20107;-45
2022/12/28 08:41:34;;;;;;;6.05;3.97;;;;;;;;;;5107731;28;20054;-45
2022/12/28 08:44:01;;;;;;;5.65;4.10;;;;;;;;;;5107843;28;20039;-45
2022/12/28 08:46:28;;;;;;;7.00;4.25;;;;;;;;;;5107922;28;20058;-45
2022/12/28 08:48:55;;;;;;;7.03;3.90;;;;;;;;;;5107917;28;20220;-46
2022/12/28 08:51:24;;;;;;;5.60;3.72;;;;;;;;;;5107309;28;20087;-46
2022/12/28 08:53:50;;;;;;;7.47;4.05;;;;;;;;;;5107795;28;20221;-45
2022/12/28 08:56:19;;;;;;;7.18;4.20;;;;;;;;;;5107740;28;20020;-45
2022/12/28 08:58:45;;;;;;;5.60;3.95;;;;;;;;;;5107776;28;20495;-45
2022/12/28 09:01:16;;;;;;;4.80;3.47;;;;;;;;;;5107418;28;20043;-45
2022/12/28 09:03:42;;;;;;;6.72;3.75;;;;;;;;;;5107726;28;20034;-45
2022/12/28 09:06:11;;;;;;;4.97;3.30;;;;;;;;;;5107323;28;20020;-44
2022/12/28 09:08:38;;;;;;;6.82;3.67;;;;;;;;;;5107664;28;20024;-44
2022/12/28 09:11:06;;;;;;;5.15;3.30;;;;;;;;;;5107254;28;20024;-44
2022/12/28 09:13:32;;;;;;;4.80;3.40;;;;;;;;;;5107053;28;20038;-46
2022/12/28 09:15:59;;;;;;;5.13;3.40;;;;;;;;;;5107227;28;20089;-44
2022/12/28 09:18:25;;;;;;;3.88;2.83;;;;;;;;;;5107115;28;20030;-46
2022/12/28 09:20:51;;;;;;;5.68;3.28;;;;;;;;;;5107472;28;20028;-45
2022/12/28 09:23:17;;;;;;;4.20;3.08;;;;;;;;;;5107370;28;20028;-44
2022/12/28 09:25:42;;;;;;;5.45;3.65;;;;;;;;;;5107574;28;20086;-44
2022/12/28 09:28:08;;;;;;;6.60;3.60;;;;;;;;;;5106927;28;20028;-45
2022/12/28 09:30:34;;;;;;;4.18;2.80;;;;;;;;;;5107137;28;20190;-45
2022/12/28 09:35:45;;;;;;;4.28;2.92;;;;;;;;;;5107773;28;20104;-44
2022/12/28 09:38:11;;;;;;;4.68;3.05;;;;;;;;;;5107385;28;20023;-45
2022/12/28 09:40:38;;;;;;;5.28;3.55;;;;;;;;;;5107012;28;20024;-45
2022/12/28 09:43:04;;;;;;;3.20;2.63;;;;;;;;;;5106968;28;20409;-45
2022/12/28 09:45:32;;;;;;;4.93;3.10;;;;;;;;;;5107185;28;20061;-45
2022/12/28 09:48:01;;;;;;;4.68;2.85;;;;;;;;;;5106801;28;20395;-45
2022/12/28 09:50:29;;;;;;;3.63;2.58;;;;;;;;;;5106856;28;20055;-45
2022/12/28 09:52:59;;;;;;;5.28;2.78;;;;;;;;;;5093461;28;20027;-45
2022/12/28 09:55:27;;;;;;;4.68;2.75;;;;;;;;;;5106462;28;20406;-46
2022/12/28 09:57:55;;;;;;;5.07;3.10;;;;;;;;;;5106921;28;20020;-45
2022/12/28 10:00:22;;;;;;;4.00;2.70;;;;;;;;;;5106765;28;20487;-45
2022/12/28 10:02:56;;;;;;;3.72;2.40;;;;;;;;;;5106717;28;20521;-46
2022/12/28 10:05:22;;;;;;;;;;;;;;;;;;5107235;28;20068;-45
2022/12/28 10:07:49;;;;;;;3.63;2.20;;;;;;;;;;5105222;28;20002;-48
2022/12/28 10:10:20;;;;;;;3.30;2.22;;;;;;;;;;5098542;28;20059;-46
2022/12/28 10:12:47;;;;;;;3.40;2.25;;;;;;;;;;5107242;28;20032;-45
2022/12/28 10:15:13;;;;;;;3.17;2.28;;;;;;;;;;5108686;28;20028;-46
2022/12/28 10:17:40;;;;;;;2.50;1.90;;;;;;;;;;5110644;28;20020;-46
2022/12/28 10:20:07;;;;;;;2.58;2.20;;;;;;;;;;5108934;28;20109;-45
2022/12/28 10:22:38;;;;;;;3.47;2.22;;;;;;;;;;5092335;28;20034;-46
2022/12/28 10:25:12;;;;;;;2.60;2.10;;;;;;;;;;5091661;28;20032;-47
2022/12/28 10:27:38;;;;;;;2.63;1.98;;;;;;;;;;5091556;28;20062;-47
2022/12/28 10:30:10;;;;;;;2.63;1.88;;;;;;;;;;5091714;28;20024;-46
2022/12/28 10:32:47;;;;;;;2.15;1.65;;;;;;;;;;5091051;28;20051;-45
2022/12/28 10:35:24;;;;;;;2.15;1.63;;;;;;;;;;5091748;28;20032;-44
2022/12/28 10:37:51;;;;;;;2.72;1.70;;;;;;;;;;5090085;28;20081;-46
2022/12/28 10:40:22;;;;;;;1.75;1.55;;;;;;;;;;5090033;28;20020;-47
2022/12/28 10:42:50;;;;;;;2.10;1.30;;;;;;;;;;5089602;28;20032;-45
2022/12/28 10:45:37;;;;;;;1.85;1.25;;;;;;;;;;5090033;28;20027;-46
2022/12/28 10:48:08;;;;;;;1.63;1.38;;;;;;;;;;5089720;28;20040;-45
2022/12/28 10:50:52;;;;;;;1.38;1.10;;;;;;;;;;5089598;28;20035;-46
2022/12/28 10:53:19;;;;;;;1.90;1.40;;;;;;;;;;5089760;28;20433;-45
2022/12/28 10:55:46;;;;;;;1.75;1.40;;;;;;;;;;5089388;28;20031;-48
2022/12/28 10:58:19;;;;;;;1.10;1.00;;;;;;;;;;5089780;28;20459;-46
2022/12/28 11:00:52;;;;;;;1.98;1.13;;;;;;;;;;5089601;28;20027;-45
2022/12/28 11:03:23;;;;;;;1.30;0.82;;;;;;;;;;5089364;28;20111;-46
2022/12/28 11:05:49;;;;;;;1.05;0.90;;;;;;;;;;5089528;28;20036;-48
2022/12/28 11:08:15;;;;;;;0.80;0.80;;;;;;;;;;5089138;28;20024;-46
2022/12/28 11:10:41;;;;;;;1.52;1.35;;;;;;;;;;5088764;28;20028;-46
2022/12/28 11:13:18;;;;;;;1.52;1.10;;;;;;;;;;5078846;28;20044;-46
2022/12/28 11:15:44;;;;;;;1.35;0.70;;;;;;;;;;5069097;28;20077;-46
2022/12/28 11:18:15;;;;;;;0.82;0.80;;;;;;;;;;5068820;28;20554;-49
2022/12/28 11:20:42;;;;;;;1.35;0.77;;;;;;;;;;5068724;28;20061;-45
2022/12/28 11:23:08;;;;;;;1.45;1.15;;;;;;;;;;5075736;28;20039;-45
2022/12/28 11:25:35;;;;;;;2.92;0.90;;;;;;;;;;5089665;28;20589;-46
2022/12/28 11:28:05;;;;;;;1.13;0.90;;;;;;;;;;5089547;28;20402;-46
2022/12/28 11:30:31;;;;;;;2.00;1.30;;;;;;;;;;5090307;28;20031;-46
2022/12/28 11:32:58;;;;;;;1.98;1.40;;;;;;;;;;5090290;28;20082;-47
2022/12/28 11:35:29;;;;;;;2.75;1.20;;;;;;;;;;5090227;28;20043;-48
2022/12/28 11:37:56;;;;;;;1.30;1.20;;;;;;;;;;5090307;28;20030;-49
2022/12/28 11:40:37;;;;;;;1.92;1.10;;;;;;;;;;5089774;28;20024;-48
2022/12/28 11:43:03;;;;;;;1.48;1.02;;;;;;;;;;5089976;28;20113;-46
2022/12/28 11:45:48;;;;;;;2.70;1.75;;;;;;;;;;5086204;28;20032;-49
2022/12/28 11:48:46;;;;;;;1.10;1.00;;;;;;;;;;5090852;28;20032;-48
2022/12/28 11:51:23;;;;;;;1.00;0.90;;;;;;;;;;5037827;28;20392;-47
2022/12/28 11:53:54;;;;;;;1.27;1.00;;;;;;;;;;5090000;28;20032;-47
2022/12/28 11:56:21;;;;;;;2.08;1.20;;;;;;;;;;5085461;28;20085;-45
2022/12/28 11:59:00;;;;;;;1.20;1.00;;;;;;;;;;5090342;28;20028;-49
2022/12/28 12:01:27;;;;;;;1.65;1.05;;;;;;;;;;5090085;28;20400;-45
2022/12/28 12:03:56;;;;;;;2.35;1.20;;;;;;;;;;5094751;28;20074;-48
2022/12/28 12:06:41;;;;;;;1.42;1.10;;;;;;;;;;5089076;28;20115;-46
2022/12/28 12:09:27;;;;;;;2.17;1.30;;;;;;;;;;5089504;28;20068;-46
2022/12/28 12:11:57;;;;;;;1.40;1.00;;;;;;;;;;5089790;28;20077;-47
2022/12/28 12:14:30;;;;;;;1.63;1.17;;;;;;;;;;5090134;28;20085;-49
2022/12/28 12:17:01;;;;;;;1.98;1.42;;;;;;;;;;5089193;28;20027;-46
2022/12/28 12:19:38;;;;;;;2.65;1.20;;;;;;;;;;5088359;28;20020;-47
2022/12/28 12:22:10;;;;;;;1.00;0.93;;;;;;;;;;5088184;28;20059;-45
2022/12/28 12:24:57;;;;;;;1.15;1.00;;;;;;;;;;5088295;28;20503;-46
2022/12/28 12:27:38;;;;;;;2.30;1.35;;;;;;;;;;5087786;28;20035;-45
2022/12/28 12:30:14;;;;;;;1.80;1.17;;;;;;;;;;5086801;28;20028;-46
2022/12/28 12:32:45;;;;;;;2.17;1.40;;;;;;;;;;5084224;28;20110;-47
2022/12/28 12:35:13;;;;;;;2.25;1.27;;;;;;;;;;5086855;28;20032;-46
2022/12/28 12:37:42;;;;;;;1.88;1.23;;;;;;;;;;5088610;28;20020;-47
2022/12/28 12:40:15;;;;;;;2.13;1.30;;;;;;;;;;5088116;28;20028;-49
2022/12/28 12:42:41;;;;;;;1.63;0.97;;;;;;;;;;5088758;28;20024;-47
2022/12/28 12:45:13;;;;;;;2.58;1.30;;;;;;;;;;5088356;28;20149;-46
2022/12/28 12:47:52;;;;;;;2.70;1.40;;;;;;;;;;5088678;28;20040;-45
2022/12/28 12:50:36;;;;;;;2.00;1.30;;;;;;;;;;5087249;28;20449;-46
2022/12/28 12:53:14;;;;;;;1.33;1.20;;;;;;;;;;5088561;28;20032;-47
2022/12/28 12:56:06;;;;;;;2.97;1.48;;;;;;;;;;5083715;28;20028;-48
2022/12/28 12:58:40;;;;;;;1.75;1.25;;;;;;;;;;5083776;28;20058;-46
2022/12/28 13:01:07;;;;;;;2.25;1.52;;;;;;;;;;5085931;28;20031;-46
2022/12/28 13:03:40;;;;;;;2.75;1.30;;;;;;;;;;5087039;28;20455;-46
2022/12/28 13:06:06;;;;;;;1.35;1.17;;;;;;;;;;5081006;28;20520;-48
2022/12/28 13:08:37;;;;;;;1.23;1.13;;;;;;;;;;5085767;28;20047;-46
2022/12/28 13:11:03;;;;;;;2.15;1.40;;;;;;;;;;5087529;28;20411;-48
2022/12/28 13:13:29;;;;;;;3.00;1.42;;;;;;;;;;5100912;28;20040;-48
2022/12/28 13:15:58;;;;;;;1.50;0.98;;;;;;;;;;5107961;28;20073;-45
2022/12/28 13:18:25;;;;;;;1.40;1.10;;;;;;;;;;5108289;28;20047;-48
2022/12/28 13:20:55;;;;;;;2.45;1.52;;;;;;;;;;5101136;28;20462;-48
2022/12/28 13:23:22;;;;;;;1.38;1.00;;;;;;;;;;5107888;28;20024;-47
2022/12/28 13:25:49;;;;;;;1.23;0.93;;;;;;;;;;5106710;28;20449;-47
2022/12/28 13:28:42;;;;;;;1.80;1.20;;;;;;;;;;5089192;28;20033;-46
2022/12/28 13:31:21;;;;;;;1.23;1.00;;;;;;;;;;5050285;28;20036;-46
2022/12/28 13:33:55;;;;;;;1.30;1.00;;;;;;;;;;5102148;28;20123;-45
2022/12/28 13:36:21;;;;;;;1.17;0.85;;;;;;;;;;5109299;28;20020;-45
2022/12/28 13:38:58;;;;;;;1.40;1.00;;;;;;;;;;5107629;28;20028;-46
2022/12/28 13:41:25;;;;;;;2.28;0.90;;;;;;;;;;5108830;28;20039;-47
2022/12/28 13:44:13;;;;;;;1.42;0.90;;;;;;;;;;5095384;28;20024;-46
2022/12/28 13:46:40;;;;;;;2.92;1.80;;;;;;;;;;5099831;28;20038;-45
2022/12/28 13:49:06;;;;;;;2.65;1.63;;;;;;;;;;5107896;28;20031;-45
2022/12/28 13:51:35;;;;;;;2.35;1.30;;;;;;;;;;5109763;28;20027;-47
2022/12/28 13:54:01;;;;;;;1.98;1.20;;;;;;;;;;5112795;28;20026;-46
2022/12/28 13:56:28;;;;;;;1.70;1.30;;;;;;;;;;5108141;28;20051;-44
2022/12/28 13:59:02;;;;;;;2.08;1.23;;;;;;;;;;5109318;28;20027;-44
2022/12/28 14:01:28;;;;;;;;;;;;;;;;;;5111190;28;20475;-46
2022/12/28 14:03:58;;;;;;;1.80;1.20;;;;;;;;;;5110941;28;19971;-45
2022/12/28 14:06:24;;;;;;;3.67;1.38;;;;;;;;;;5111889;28;20097;-47
2022/12/28 14:08:51;;;;;;;1.50;1.23;;;;;;;;;;5112486;28;20041;-48
2022/12/28 14:11:17;;;;;;;2.75;1.20;;;;;;;;;;5111740;28;20099;-46
2022/12/28 14:13:43;;;;;;;1.88;1.10;;;;;;;;;;5109452;28;20085;-49
2022/12/28 14:16:09;;;;;;;1.55;1.10;;;;;;;;;;5112508;28;20115;-47
2022/12/28 14:18:36;;;;;;;1.73;1.00;;;;;;;;;;5110140;28;20027;-49
2022/12/28 14:21:04;;;;;;;1.50;1.08;;;;;;;;;;5110267;28;20024;-45
2022/12/28 14:23:32;;;;;;;1.27;0.70;;;;;;;;;;5112287;28;20039;-49
2022/12/28 14:26:03;;;;;;;1.67;0.90;;;;;;;;;;5112337;28;20043;-46
2022/12/28 14:28:29;;;;;;;1.92;1.23;;;;;;;;;;5111296;28;20039;-49
2022/12/28 14:30:55;;;;;;;1.25;0.95;;;;;;;;;;5092141;28;20110;-46
2022/12/28 14:33:22;;;;;;;1.38;1.00;;;;;;;;;;5092012;28;20043;-46
2022/12/28 14:35:50;;;;;;;2.40;1.15;;;;;;;;;;5104666;28;20077;-45
2022/12/28 14:38:19;;;;;;;2.50;1.10;;;;;;;;;;5110709;28;20096;-47
2022/12/28 14:40:51;;;;;;;1.42;0.90;;;;;;;;;;5110326;28;20039;-44
2022/12/28 14:43:20;;;;;;;1.70;1.20;;;;;;;;;;5110615;28;20059;-48
2022/12/28 14:45:47;;;;;;;1.63;1.15;;;;;;;;;;5111999;28;20033;-45
2022/12/28 14:48:31;;;;;;;3.75;1.40;;;;;;;;;;5112452;28;20400;-49
2022/12/28 14:50:59;;;;;;;1.58;1.02;;;;;;;;;;5112010;28;20024;-46
2022/12/28 14:53:25;;;;;;;2.60;1.05;;;;;;;;;;5109670;28;20035;-49
2022/12/28 14:56:00;;;;;;;1.20;0.98;;;;;;;;;;5111682;28;20046;-46
2022/12/28 14:58:28;;;;;;;1.92;1.13;;;;;;;;;;5103468;28;20040;-47
2022/12/28 15:00:56;;;;;;;28.10;11.30;;;;;;;;;;5104865;28;20032;-46
2022/12/28 15:03:24;;;;;;;21.58;6.90;;;;;;;;;;5092646;28;20055;-47
2022/12/28 15:05:53;;;;;;;9.77;4.53;;;;;;;;;;5104109;28;20028;-47
2022/12/28 15:08:19;;;;;;;7.50;4.30;;;;;;;;;;5109231;27;20498;-45
2022/12/28 15:10:47;;;;;;;7.43;4.45;;;;;;;;;;5096640;28;20401;-48
2022/12/28 15:13:13;;;;;;;4.13;2.90;;;;;;;;;;5098519;28;20028;-45
2022/12/28 15:15:39;;;;;;;4.75;3.38;;;;;;;;;;5099182;28;20035;-46
2022/12/28 15:18:05;;;;;;;4.10;2.90;;;;;;;;;;5107686;28;20078;-49
2022/12/28 15:20:31;;;;;;;4.63;2.70;;;;;;;;;;5109920;28;20062;-46
2022/12/28 15:22:57;;;;;;;3.75;2.22;;;;;;;;;;5108876;28;20034;-45
2022/12/28 15:25:23;;;;;;;3.75;2.20;;;;;;;;;;5108844;28;20032;-49
2022/12/28 15:27:50;;;;;;;5.30;3.20;;;;;;;;;;5109987;28;20513;-47
2022/12/28 15:30:16;;;;;;;3.38;2.50;;;;;;;;;;5110621;28;20482;-47
2022/12/28 15:32:42;;;;;;;2.63;1.80;;;;;;;;;;5110235;28;20085;-47
2022/12/28 15:35:08;;;;;;;2.55;1.90;;;;;;;;;;5110027;28;20406;-45
2022/12/28 15:37:34;;;;;;;3.80;2.30;;;;;;;;;;5109459;28;20080;-45
2022/12/28 15:40:01;;;;;;;3.58;2.08;;;;;;;;;;5110100;28;20035;-47
2022/12/28 15:42:27;;;;;;;3.08;2.08;;;;;;;;;;5091548;28;20027;-46
2022/12/28 15:44:54;;;;;;;3.45;2.20;;;;;;;;;;5109780;28;20781;-45
2022/12/28 15:47:22;;;;;;;5.82;2.63;;;;;;;;;;5107332;28;20036;-46
2022/12/28 15:49:48;;;;;;;3.28;2.15;;;;;;;;;;5109843;28;20416;-46
2022/12/28 15:52:14;;;;;;;3.45;1.95;;;;;;;;;;5108731;28;20032;-46
2022/12/28 15:54:41;;;;;;;3.72;2.10;;;;;;;;;;5112357;27;20294;-45
2022/12/28 15:57:09;;;;;;;2.63;1.65;;;;;;;;;;5109343;28;20100;-45
2022/12/28 15:59:36;;;;;;;4.05;1.83;;;;;;;;;;5104777;28;20045;-46
2022/12/28 16:02:02;;;;;;;4.18;2.08;;;;;;;;;;5109309;28;20032;-45
2022/12/28 16:04:28;;;;;;;3.90;2.10;;;;;;;;;;5109435;28;20082;-47
2022/12/28 16:06:54;;;;;;;3.03;1.85;;;;;;;;;;5108189;28;20568;-48
2022/12/28 16:09:20;;;;;;;2.53;1.70;;;;;;;;;;5108454;28;20031;-48
2022/12/28 16:11:46;;;;;;;4.07;2.83;;;;;;;;;;5109118;28;20502;-49
2022/12/28 16:14:16;;;;;;;4.10;2.88;;;;;;;;;;5108469;28;20046;-45
2022/12/28 16:16:43;;;;;;;3.53;2.00;;;;;;;;;;5107953;28;20019;-46
2022/12/28 16:19:11;;;;;;;6.80;3.67;;;;;;;;;;5108874;28;20027;-45
2022/12/28 16:21:37;;;;;;;6.40;3.83;;;;;;;;;;5108756;28;20042;-47
2022/12/28 16:24:03;;;;;;;4.53;2.78;;;;;;;;;;5109020;28;20028;-46
2022/12/28 16:26:29;;;;;;;3.00;2.03;;;;;;;;;;5109264;28;20069;-46
2022/12/28 16:28:56;;;;;;;3.40;2.33;;;;;;;;;;5109138;28;20475;-46
2022/12/28 16:31:27;;;;;;;3.45;1.75;;;;;;;;;;5107228;28;20035;-46
2022/12/28 16:33:54;;;;;;;2.42;1.95;;;;;;;;;;5108372;28;20525;-45
2022/12/28 16:36:20;;;;;;;3.25;1.80;;;;;;;;;;5108752;28;20056;-46
2022/12/28 16:38:46;;;;;;;2.83;1.92;;;;;;;;;;5107646;28;20490;-49
2022/12/28 16:41:13;;;;;;;3.88;1.63;;;;;;;;;;5107502;28;20023;-50
2022/12/28 16:43:39;;;;;;;2.85;1.70;;;;;;;;;;5108161;28;20028;-46
2022/12/28 16:46:06;;;;;;;2.03;1.30;;;;;;;;;;5108777;28;20023;-47
2022/12/28 16:48:32;;;;;;;2.42;1.80;;;;;;;;;;5108433;28;20053;-46
2022/12/28 16:51:00;;;;;;;2.63;1.40;;;;;;;;;;5108690;28;20144;-46
2022/12/28 16:53:26;;;;;;;1.90;1.58;;;;;;;;;;5107146;28;20031;-46
2022/12/28 16:55:52;;;;;;;3.53;1.75;;;;;;;;;;5107652;28;20098;-46
2022/12/28 16:58:18;;;;;;;2.65;1.77;;;;;;;;;;5108121;28;20157;-46
2022/12/28 17:00:44;;;;;;;3.40;1.80;;;;;;;;;;5098910;28;20034;-46
2022/12/28 17:03:10;;;;;;;2.38;1.77;;;;;;;;;;5107006;28;20031;-48
2022/12/28 17:05:37;;;;;;;2.08;1.52;;;;;;;;;;5108715;28;20130;-47
2022/12/28 17:08:04;;;;;;;2.90;1.85;;;;;;;;;;5108146;28;20028;-47
2022/12/28 17:10:30;;;;;;;2.00;1.60;;;;;;;;;;5108231;28;20438;-49
2022/12/28 17:12:56;;;;;;;2.03;1.70;;;;;;;;;;5107927;28;20031;-48
2022/12/28 17:15:23;;;;;;;1.60;1.50;;;;;;;;;;5107557;28;20027;-48
2022/12/28 17:17:50;;;;;;;3.08;1.85;;;;;;;;;;5107949;28;20433;-45
2022/12/28 17:20:17;;;;;;;2.38;1.52;;;;;;;;;;5105881;28;20024;-46
2022/12/28 17:22:43;;;;;;;3.40;2.03;;;;;;;;;;5106414;28;20039;-47
2022/12/28 17:25:09;;;;;;;3.35;1.77;;;;;;;;;;5106476;28;20406;-46
2022/12/28 17:27:35;;;;;;;3.10;2.00;;;;;;;;;;5110913;28;20027;-47
2022/12/28 17:30:01;;;;;;;2.60;1.50;;;;;;;;;;5112464;28;20130;-45
2022/12/28 17:32:27;;;;;;;3.83;1.90;;;;;;;;;;5109344;28;20106;-47
2022/12/28 17:34:53;;;;;;;3.30;2.10;;;;;;;;;;5112499;28;20095;-46
2022/12/28 17:37:20;;;;;;;3.30;2.20;;;;;;;;;;5112174;28;20024;-46
2022/12/28 17:39:47;;;;;;;2.85;1.80;;;;;;;;;;5112410;28;20476;-48
2022/12/28 17:42:14;;;;;;;2.83;1.95;;;;;;;;;;5112602;28;20034;-46
2022/12/28 17:44:40;;;;;;;4.07;2.35;;;;;;;;;;5111425;28;20045;-46
2022/12/28 17:47:07;;;;;;;5.07;2.53;;;;;;;;;;5099668;28;20322;-45
2022/12/28 17:49:33;;;;;;;3.47;2.10;;;;;;;;;;5103836;28;20120;-50
2022/12/28 17:51:59;;;;;;;2.75;1.92;;;;;;;;;;5107510;28;20027;-46
2022/12/28 17:54:25;;;;;;;2.58;1.90;;;;;;;;;;5111120;28;20097;-49
2022/12/28 17:56:51;;;;;;;3.65;1.98;;;;;;;;;;5110885;28;20028;-46
2022/12/28 17:59:17;;;;;;;2.60;1.73;;;;;;;;;;5112022;28;20564;-46
2022/12/28 18:01:43;;;;;;;3.90;2.10;;;;;;;;;;5097525;28;20028;-47
2022/12/28 18:04:10;;;;;;;3.42;2.13;;;;;;;;;;5091762;28;20077;-47
2022/12/28 18:06:36;;;;;;;4.45;2.08;;;;;;;;;;5093827;28;20704;-47
2022/12/28 18:09:03;;;;;;;4.47;2.15;;;;;;;;;;5106548;28;20024;-47
2022/12/28 18:11:29;;;;;;;6.07;2.60;;;;;;;;;;5097705;28;20099;-46
2022/12/28 18:13:57;;;;;;;4.43;2.40;;;;;;;;;;5101078;28;20053;-49
2022/12/28 18:16:25;;;;;;;5.22;2.50;;;;;;;;;;5111560;28;20061;-45
2022/12/28 18:18:51;;;;;;;4.63;2.50;;;;;;;;;;5112070;28;20065;-48
2022/12/28 18:21:19;;;;;;;4.20;2.13;;;;;;;;;;5111140;28;20448;-46
2022/12/28 18:23:46;;;;;;;3.50;2.17;;;;;;;;;;5111767;28;20023;-47
2022/12/28 18:26:14;;;;;;;4.60;2.03;;;;;;;;;;5111956;28;20092;-45
2022/12/28 18:28:40;;;;;;;3.78;2.33;;;;;;;;;;5105243;28;20024;-49
2022/12/28 18:31:06;;;;;;;3.67;2.17;;;;;;;;;;5110167;28;20023;-45
2022/12/28 18:33:33;;;;;;;5.05;2.65;;;;;;;;;;5096629;28;20561;-45
2022/12/28 18:36:01;;;;;;;5.43;3.28;;;;;;;;;;5110437;28;20020;-45
2022/12/28 18:38:27;;;;;;;4.55;2.53;;;;;;;;;;5096270;28;20115;-46
2022/12/28 18:40:53;;;;;;;4.80;2.60;;;;;;;;;;5107103;28;20033;-48
2022/12/28 18:43:19;;;;;;;5.65;3.03;;;;;;;;;;5104073;28;20073;-46
2022/12/28 18:45:56;;;;;;;6.00;3.17;;;;;;;;;;5106860;28;20114;-47
2022/12/28 18:48:23;;;;;;;5.25;2.50;;;;;;;;;;5095800;28;20493;-48
2022/12/28 18:50:56;;;;;;;6.38;3.10;;;;;;;;;;5107336;28;20023;-46
2022/12/28 18:53:22;;;;;;;4.65;2.88;;;;;;;;;;5099133;28;20077;-45
2022/12/28 18:55:59;;;;;;;5.70;2.65;;;;;;;;;;5110400;28;20026;-44
2022/12/28 18:58:26;;;;;;;4.78;2.30;;;;;;;;;;5110414;28;20012;-48
2022/12/28 19:00:52;;;;;;;4.85;2.45;;;;;;;;;;5107046;28;20081;-45
2022/12/28 19:03:18;;;;;;;4.13;2.47;;;;;;;;;;5108966;28;20053;-47
2022/12/28 19:05:44;;;;;;;4.07;2.22;;;;;;;;;;5109446;28;20032;-45
2022/12/28 19:08:10;;;;;;;5.15;2.72;;;;;;;;;;5109816;28;20032;-45
2022/12/28 19:10:36;;;;;;;4.55;2.38;;;;;;;;;;5109020;28;20038;-47
2022/12/28 19:13:02;;;;;;;3.03;1.92;;;;;;;;;;5109595;28;20067;-46
2022/12/28 19:15:30;;;;;;;4.47;2.45;;;;;;;;;;5109060;28;20073;-47
2022/12/28 19:17:56;;;;;;;4.95;2.60;;;;;;;;;;5105466;28;20076;-48
2022/12/28 19:20:23;;;;;;;5.97;2.88;;;;;;;;;;5108481;28;20024;-45
2022/12/28 19:22:49;;;;;;;4.28;2.30;;;;;;;;;;5109675;28;20494;-45
2022/12/28 19:25:15;;;;;;;4.13;2.50;;;;;;;;;;5109094;28;20031;-47
2022/12/28 19:27:42;;;;;;;4.05;2.20;;;;;;;;;;5107079;28;20035;-45
2022/12/28 19:30:08;;;;;;;4.13;2.22;;;;;;;;;;5107816;28;20059;-49
2022/12/28 19:32:34;;;;;;;4.18;2.33;;;;;;;;;;5108676;28;20036;-45
2022/12/28 19:35:00;;;;;;;5.35;2.45;;;;;;;;;;5108964;28;20045;-46
2022/12/28 19:37:26;;;;;;;4.50;2.75;;;;;;;;;;5108831;28;20496;-48
2022/12/28 19:39:52;;;;;;;6.00;3.03;;;;;;;;;;5105756;28;20110;-44
2022/12/28 19:42:18;;;;;;;5.30;2.63;;;;;;;;;;5107852;28;20160;-49
2022/12/28 19:44:45;;;;;;;5.07;3.13;;;;;;;;;;5106885;28;20040;-48
2022/12/28 19:47:11;;;;;;;4.72;3.25;;;;;;;;;;5107289;28;20027;-45
2022/12/28 19:49:37;;;;;;;3.53;2.47;;;;;;;;;;5105659;28;20034;-45
2022/12/28 19:52:03;;;;;;;2.85;2.38;;;;;;;;;;5105740;28;20020;-45
2022/12/28 19:54:29;;;;;;;3.58;2.50;;;;;;;;;;5107281;28;20042;-48
2022/12/28 19:56:55;;;;;;;4.80;2.80;;;;;;;;;;5088829;28;20027;-47